Archer City, TX (76351)

3:58 PM CDT on August 28, 2015 (GMT -0500)
Parker Rd | | Change Station
CLOSE
Current Station
Personal Weather Station
Location: Wichita Falls, TX
Elevation: 1030 ft
Nearby Weather Stations

Elev 1030 ft 33.80 °N, 98.54 °W | Updated 8 minutes ago

Partly Cloudy
Partly Cloudy
97.3 °F
Feels Like 100 °F
N
7.8
Wind Variable Wind from SE

Today
High -- | Low -- °F
--% Chance of Precip.
Yesterday
High -- | Low -- °F
Precip. -- in
7:05 AM 8:05 PM
Waxing Gibbous, 99% visible
Pressure 29.93 in
Visibility 10.0 miles
Clouds Clear
Heat Index 100 °F
Dew Point 65 °F
Humidity 35%
Rainfall 0.00 in
Snow Depth Not available.
UV 7 out of 12
Pollen 8.90 out of 12
Air Quality Not available.
Flu Activity Not available.
METAR KCWC 282055Z AUTO 15003KT 10SM CLR 36/15 A2993 RMK AO2 T03610154
Pressure 29.93 in
Visibility 10.0 miles
Clouds Clear
Heat Index 100 °F
Dew Point 65 °F
Humidity 35%
Rainfall 0.00 in
Snow Depth Not available.
UV 7 out of 12
Pollen 8.90 out of 12
Air Quality Not available.
Flu Activity Not available.
METAR KCWC 282055Z AUTO 15003KT 10SM CLR 36/15 A2993 RMK AO2 T03610154

10-Day Weather Forecast

×

Almanac

Astronomy

Aug. 28, 2015 Rise Set
Actual Time
Civil Twilight
Nautical Twilight
Astronomical Twilight
Moon
Length of Visible Light
Length of Day
Tomorrow will be .
, % of the Moon is Illuminated

Today's Extremes

State Highs State Lows

Community

WunderPhotos

Upload Photos

1,850,481 photos uploaded!

WunderBlogs® & News

Nearby

Air Quality

  Air Quality AQ Index Pollutant
Not available.

Snow Depth

Station Depth Elevation

Earthquake Activity

City Distance Mag. Time & Date
Minimum magnitude displayed is 2.5.

Coastal Water Temperatures

Place Temperature

Stations

Nearby Weather Stations

Station Location Temp. Windchill Dew Point Humidity Wind Precip. Elev Updated Type